sensor_id;sensor_type;location;lat;lon;timestamp;pressure;altitude;pressure_sealevel;temperature;humidity
54329;BME280;40710;51.120;13.136;2023-05-14T00:01:00;99744.72;;;17.56;52.21
54329;BME280;40710;51.120;13.136;2023-05-14T00:03:25;99736.50;;;17.60;51.97
54329;BME280;40710;51.120;13.136;2023-05-14T00:05:50;99737.22;;;17.62;52.35
54329;BME280;40710;51.120;13.136;2023-05-14T00:08:15;99740.44;;;17.78;52.08
54329;BME280;40710;51.120;13.136;2023-05-14T00:10:40;99729.53;;;17.58;52.17
54329;BME280;40710;51.120;13.136;2023-05-14T00:13:04;99734.47;;;17.63;52.17
54329;BME280;40710;51.120;13.136;2023-05-14T00:15:29;99729.53;;;17.58;52.59
54329;BME280;40710;51.120;13.136;2023-05-14T00:17:53;99724.44;;;17.55;52.55
54329;BME280;40710;51.120;13.136;2023-05-14T00:20:18;99720.06;;;17.54;52.46
54329;BME280;40710;51.120;13.136;2023-05-14T00:22:42;99710.91;;;17.58;52.10
54329;BME280;40710;51.120;13.136;2023-05-14T00:25:07;99713.56;;;17.58;51.80
54329;BME280;40710;51.120;13.136;2023-05-14T00:27:33;99710.66;;;17.50;52.32
54329;BME280;40710;51.120;13.136;2023-05-14T00:29:57;99710.88;;;17.47;52.15
54329;BME280;40710;51.120;13.136;2023-05-14T00:32:23;99702.78;;;17.37;52.30
54329;BME280;40710;51.120;13.136;2023-05-14T00:34:47;99711.31;;;17.30;52.75
54329;BME280;40710;51.120;13.136;2023-05-14T00:37:12;99706.22;;;17.27;52.54
54329;BME280;40710;51.120;13.136;2023-05-14T00:39:36;99705.97;;;17.18;52.87
54329;BME280;40710;51.120;13.136;2023-05-14T00:42:01;99703.84;;;17.35;52.81
54329;BME280;40710;51.120;13.136;2023-05-14T00:44:25;99701.16;;;17.24;53.11
54329;BME280;40710;51.120;13.136;2023-05-14T00:46:51;99711.09;;;16.97;54.14
54329;BME280;40710;51.120;13.136;2023-05-14T00:49:16;99697.53;;;17.25;53.04
54329;BME280;40710;51.120;13.136;2023-05-14T00:51:42;99694.69;;;17.04;53.76
54329;BME280;40710;51.120;13.136;2023-05-14T00:54:10;99684.97;;;17.27;53.28
54329;BME280;40710;51.120;13.136;2023-05-14T00:56:35;99696.69;;;16.89;54.19
54329;BME280;40710;51.120;13.136;2023-05-14T00:59:00;99685.84;;;17.27;53.09
54329;BME280;40710;51.120;13.136;2023-05-14T01:01:24;99691.41;;;17.00;53.74
54329;BME280;40710;51.120;13.136;2023-05-14T01:03:51;99683.00;;;17.06;53.91
54329;BME280;40710;51.120;13.136;2023-05-14T01:06:34;99682.69;;;17.33;53.14
54329;BME280;40710;51.120;13.136;2023-05-14T01:09:29;99683.94;;;17.41;52.96
54329;BME280;40710;51.120;13.136;2023-05-14T01:12:05;99686.69;;;17.39;53.07
54329;BME280;40710;51.120;13.136;2023-05-14T01:17:15;99683.91;;;17.29;53.63
54329;BME280;40710;51.120;13.136;2023-05-14T01:19:43;99678.97;;;17.36;53.15
54329;BME280;40710;51.120;13.136;2023-05-14T01:22:09;99688.38;;;17.29;53.49
54329;BME280;40710;51.120;13.136;2023-05-14T01:24:34;99681.53;;;17.37;52.80
54329;BME280;40710;51.120;13.136;2023-05-14T01:27:24;99697.44;;;17.02;53.72
54329;BME280;40710;51.120;13.136;2023-05-14T01:32:46;99690.88;;;17.19;53.43
54329;BME280;40710;51.120;13.136;2023-05-14T01:35:12;99691.00;;;17.17;53.08
54329;BME280;40710;51.120;13.136;2023-05-14T01:37:40;99698.34;;;16.90;53.98
54329;BME280;40710;51.120;13.136;2023-05-14T01:40:06;99692.59;;;17.20;52.79
54329;BME280;40710;51.120;13.136;2023-05-14T01:42:31;99696.53;;;17.14;52.47
54329;BME280;40710;51.120;13.136;2023-05-14T01:44:56;99704.69;;;17.00;52.59
54329;BME280;40710;51.120;13.136;2023-05-14T01:47:21;99695.84;;;16.75;53.54
54329;BME280;40710;51.120;13.136;2023-05-14T01:49:45;99693.81;;;16.92;53.88
54329;BME280;40710;51.120;13.136;2023-05-14T01:52:10;99695.03;;;16.99;53.41
54329;BME280;40710;51.120;13.136;2023-05-14T01:54:35;99694.16;;;16.98;53.57
54329;BME280;40710;51.120;13.136;2023-05-14T01:56:59;99702.88;;;16.76;54.03
54329;BME280;40710;51.120;13.136;2023-05-14T01:59:24;99676.66;;;17.20;52.83
54329;BME280;40710;51.120;13.136;2023-05-14T02:01:48;99685.84;;;17.27;52.60
54329;BME280;40710;51.120;13.136;2023-05-14T02:04:13;99690.25;;;17.04;53.20
54329;BME280;40710;51.120;13.136;2023-05-14T02:06:38;99675.25;;;17.03;53.20
54329;BME280;40710;51.120;13.136;2023-05-14T02:09:04;99671.84;;;17.25;52.77
54329;BME280;40710;51.120;13.136;2023-05-14T02:11:28;99673.06;;;17.32;52.56
54329;BME280;40710;51.120;13.136;2023-05-14T02:13:53;99679.47;;;17.06;52.93
54329;BME280;40710;51.120;13.136;2023-05-14T02:16:17;99678.13;;;17.00;53.19
54329;BME280;40710;51.120;13.136;2023-05-14T02:18:42;99678.69;;;16.68;54.08
54329;BME280;40710;51.120;13.136;2023-05-14T02:21:07;99682.47;;;16.77;54.35
54329;BME280;40710;51.120;13.136;2023-05-14T02:23:31;99678.06;;;16.64;53.94
54329;BME280;40710;51.120;13.136;2023-05-14T02:25:56;99685.00;;;16.54;54.72
54329;BME280;40710;51.120;13.136;2023-05-14T02:28:20;99677.97;;;16.66;54.34
54329;BME280;40710;51.120;13.136;2023-05-14T02:30:45;99679.16;;;16.86;54.19
54329;BME280;40710;51.120;13.136;2023-05-14T02:33:09;99681.91;;;16.60;53.59
54329;BME280;40710;51.120;13.136;2023-05-14T02:35:34;99689.06;;;15.84;56.67
54329;BME280;40710;51.120;13.136;2023-05-14T02:37:59;99683.56;;;15.75;57.04
54329;BME280;40710;51.120;13.136;2023-05-14T02:40:24;99678.03;;;15.65;57.10
54329;BME280;40710;51.120;13.136;2023-05-14T02:42:49;99686.81;;;15.65;57.07
54329;BME280;40710;51.120;13.136;2023-05-14T02:45:13;99685.16;;;15.52;57.60
54329;BME280;40710;51.120;13.136;2023-05-14T02:47:38;99682.69;;;15.61;57.46
54329;BME280;40710;51.120;13.136;2023-05-14T02:50:05;99680.16;;;15.47;58.15
54329;BME280;40710;51.120;13.136;2023-05-14T02:52:30;99677.28;;;15.50;57.89
54329;BME280;40710;51.120;13.136;2023-05-14T02:54:54;99678.66;;;15.56;58.17
54329;BME280;40710;51.120;13.136;2023-05-14T02:57:19;99682.75;;;15.21;58.68
54329;BME280;40710;51.120;13.136;2023-05-14T02:59:44;99682.47;;;14.99;59.84
54329;BME280;40710;51.120;13.136;2023-05-14T03:02:09;99685.13;;;14.59;60.78
54329;BME280;40710;51.120;13.136;2023-05-14T03:04:33;99685.97;;;14.45;60.97
54329;BME280;40710;51.120;13.136;2023-05-14T03:06:58;99684.81;;;14.63;60.35
54329;BME280;40710;51.120;13.136;2023-05-14T03:09:22;99679.13;;;14.69;59.97
54329;BME280;40710;51.120;13.136;2023-05-14T03:11:47;99676.59;;;14.68;59.73
54329;BME280;40710;51.120;13.136;2023-05-14T03:14:11;99675.53;;;14.70;59.68
54329;BME280;40710;51.120;13.136;2023-05-14T03:16:36;99669.28;;;14.71;59.91
54329;BME280;40710;51.120;13.136;2023-05-14T03:19:01;99664.19;;;14.96;58.83
54329;BME280;40710;51.120;13.136;2023-05-14T03:21:26;99668.56;;;14.69;59.42
54329;BME280;40710;51.120;13.136;2023-05-14T03:23:51;99666.47;;;14.87;58.88
54329;BME280;40710;51.120;13.136;2023-05-14T03:26:16;99666.41;;;15.02;59.09
54329;BME280;40710;51.120;13.136;2023-05-14T03:28:40;99668.19;;;14.61;59.87
54329;BME280;40710;51.120;13.136;2023-05-14T03:31:05;99663.16;;;14.71;60.14
54329;BME280;40710;51.120;13.136;2023-05-14T03:33:30;99664.38;;;14.92;59.15
54329;BME280;40710;51.120;13.136;2023-05-14T03:35:54;99663.56;;;15.05;59.01
54329;BME280;40710;51.120;13.136;2023-05-14T03:38:19;99656.00;;;14.86;59.26
54329;BME280;40710;51.120;13.136;2023-05-14T03:40:44;99656.16;;;14.97;59.39
54329;BME280;40710;51.120;13.136;2023-05-14T03:43:08;99652.34;;;15.01;58.63
54329;BME280;40710;51.120;13.136;2023-05-14T03:45:34;99648.06;;;14.86;58.79
54329;BME280;40710;51.120;13.136;2023-05-14T03:47:58;99648.09;;;14.99;58.71
54329;BME280;40710;51.120;13.136;2023-05-14T03:50:23;99648.59;;;14.91;59.37
54329;BME280;40710;51.120;13.136;2023-05-14T03:52:48;99648.81;;;14.88;59.40
54329;BME280;40710;51.120;13.136;2023-05-14T03:55:13;99645.13;;;15.03;58.81
54329;BME280;40710;51.120;13.136;2023-05-14T03:57:37;99658.25;;;14.65;60.11
54329;BME280;40710;51.120;13.136;2023-05-14T04:00:03;99659.78;;;14.54;60.30
54329;BME280;40710;51.120;13.136;2023-05-14T04:02:28;99654.03;;;14.48;60.63
54329;BME280;40710;51.120;13.136;2023-05-14T04:04:52;99653.91;;;14.64;60.56
54329;BME280;40710;51.120;13.136;2023-05-14T04:07:17;99651.75;;;14.56;60.79
54329;BME280;40710;51.120;13.136;2023-05-14T04:09:42;99654.66;;;14.51;60.90
54329;BME280;40710;51.120;13.136;2023-05-14T04:12:06;99648.97;;;14.72;60.26
54329;BME280;40710;51.120;13.136;2023-05-14T04:14:31;99650.75;;;14.59;60.39
54329;BME280;40710;51.120;13.136;2023-05-14T04:16:55;99641.56;;;14.50;60.04
54329;BME280;40710;51.120;13.136;2023-05-14T04:19:20;99638.19;;;14.75;59.41
54329;BME280;40710;51.120;13.136;2023-05-14T04:21:44;99640.22;;;14.84;59.26
54329;BME280;40710;51.120;13.136;2023-05-14T04:24:09;99636.44;;;14.88;58.96
54329;BME280;40710;51.120;13.136;2023-05-14T04:26:33;99636.66;;;14.98;58.74
54329;BME280;40710;51.120;13.136;2023-05-14T04:28:58;99641.13;;;15.10;58.58
54329;BME280;40710;51.120;13.136;2023-05-14T04:31:26;99645.41;;;14.86;59.59
54329;BME280;40710;51.120;13.136;2023-05-14T04:33:50;99644.78;;;14.95;59.53
54329;BME280;40710;51.120;13.136;2023-05-14T04:36:15;99644.69;;;14.97;59.90
54329;BME280;40710;51.120;13.136;2023-05-14T04:38:39;99642.78;;;14.99;59.65
54329;BME280;40710;51.120;13.136;2023-05-14T04:41:04;99641.66;;;15.16;59.15
54329;BME280;40710;51.120;13.136;2023-05-14T04:43:29;99636.81;;;15.48;57.97
54329;BME280;40710;51.120;13.136;2023-05-14T04:45:54;99634.34;;;15.19;59.16
54329;BME280;40710;51.120;13.136;2023-05-14T04:48:18;99635.56;;;15.54;58.87
54329;BME280;40710;51.120;13.136;2023-05-14T04:50:43;99623.13;;;15.67;57.87
54329;BME280;40710;51.120;13.136;2023-05-14T04:53:07;99622.72;;;15.86;56.56
54329;BME280;40710;51.120;13.136;2023-05-14T04:55:32;99625.28;;;15.75;57.25
54329;BME280;40710;51.120;13.136;2023-05-14T04:57:56;99622.34;;;16.03;56.87
54329;BME280;40710;51.120;13.136;2023-05-14T05:00:21;99622.91;;;15.96;57.04
54329;BME280;40710;51.120;13.136;2023-05-14T05:02:46;99622.66;;;16.12;57.02
54329;BME280;40710;51.120;13.136;2023-05-14T05:05:11;99624.94;;;15.92;57.23
54329;BME280;40710;51.120;13.136;2023-05-14T05:07:35;99619.06;;;16.00;56.87
54329;BME280;40710;51.120;13.136;2023-05-14T05:10:00;99614.28;;;16.05;56.57
54329;BME280;40710;51.120;13.136;2023-05-14T05:12:24;99617.94;;;16.28;56.42
54329;BME280;40710;51.120;13.136;2023-05-14T05:14:49;99626.41;;;15.70;56.85
54329;BME280;40710;51.120;13.136;2023-05-14T05:17:14;99622.91;;;15.96;56.69
54329;BME280;40710;51.120;13.136;2023-05-14T05:19:38;99618.50;;;15.83;56.76
54329;BME280;40710;51.120;13.136;2023-05-14T05:22:03;99609.25;;;16.26;55.88
54329;BME280;40710;51.120;13.136;2023-05-14T05:24:28;99602.09;;;16.39;55.38
54329;BME280;40710;51.120;13.136;2023-05-14T05:26:52;99598.13;;;16.69;54.19
54329;BME280;40710;51.120;13.136;2023-05-14T05:29:18;99586.19;;;16.99;53.18
54329;BME280;40710;51.120;13.136;2023-05-14T05:31:43;99588.13;;;17.08;52.77
54329;BME280;40710;51.120;13.136;2023-05-14T05:34:08;99596.47;;;16.79;53.73
54329;BME280;40710;51.120;13.136;2023-05-14T05:36:32;99600.75;;;16.93;53.36
54329;BME280;40710;51.120;13.136;2023-05-14T05:38:57;99599.97;;;16.80;53.61
54329;BME280;40710;51.120;13.136;2023-05-14T05:41:21;99595.59;;;16.79;54.00
54329;BME280;40710;51.120;13.136;2023-05-14T05:43:46;99598.47;;;16.40;54.81
54329;BME280;40710;51.120;13.136;2023-05-14T05:46:10;99591.78;;;16.83;54.09
54329;BME280;40710;51.120;13.136;2023-05-14T05:48:35;99592.97;;;16.79;53.75
54329;BME280;40710;51.120;13.136;2023-05-14T05:51:00;99588.88;;;17.44;53.02
54329;BME280;40710;51.120;13.136;2023-05-14T05:53:24;99591.56;;;16.86;54.26
54329;BME280;40710;51.120;13.136;2023-05-14T05:55:49;99592.00;;;17.15;54.09
54329;BME280;40710;51.120;13.136;2023-05-14T05:58:14;99594.25;;;16.97;54.65
54329;BME280;40710;51.120;13.136;2023-05-14T06:00:40;99595.16;;;17.32;53.97
54329;BME280;40710;51.120;13.136;2023-05-14T06:03:05;99594.34;;;17.54;53.77
54329;BME280;40710;51.120;13.136;2023-05-14T06:05:29;99595.16;;;17.20;53.65
54329;BME280;40710;51.120;13.136;2023-05-14T06:07:54;99593.41;;;16.97;54.09
54329;BME280;40710;51.120;13.136;2023-05-14T06:10:18;99591.41;;;17.12;54.00
54329;BME280;40710;51.120;13.136;2023-05-14T06:12:43;99593.13;;;17.81;52.72
54329;BME280;40710;51.120;13.136;2023-05-14T06:15:07;99589.16;;;17.52;53.23
54329;BME280;40710;51.120;13.136;2023-05-14T06:17:32;99590.09;;;17.40;53.78
54329;BME280;40710;51.120;13.136;2023-05-14T06:19:57;99586.50;;;17.86;53.36
54329;BME280;40710;51.120;13.136;2023-05-14T06:22:21;99573.22;;;18.30;52.21
54329;BME280;40710;51.120;13.136;2023-05-14T06:24:47;99575.44;;;18.57;51.45
54329;BME280;40710;51.120;13.136;2023-05-14T06:27:11;99566.22;;;18.29;50.92
54329;BME280;40710;51.120;13.136;2023-05-14T06:29:36;99576.28;;;18.25;51.47
54329;BME280;40710;51.120;13.136;2023-05-14T06:32:02;99563.09;;;18.56;50.49
54329;BME280;40710;51.120;13.136;2023-05-14T06:34:27;99577.53;;;18.42;50.83
54329;BME280;40710;51.120;13.136;2023-05-14T06:36:51;99564.94;;;18.77;50.05
54329;BME280;40710;51.120;13.136;2023-05-14T06:39:16;99561.34;;;18.99;50.05
54329;BME280;40710;51.120;13.136;2023-05-14T06:41:41;99560.88;;;18.94;50.09
54329;BME280;40710;51.120;13.136;2023-05-14T06:44:05;99558.47;;;18.91;50.00
54329;BME280;40710;51.120;13.136;2023-05-14T06:46:30;99558.50;;;19.21;49.33
54329;BME280;40710;51.120;13.136;2023-05-14T06:48:55;99560.94;;;19.03;49.93
54329;BME280;40710;51.120;13.136;2023-05-14T06:51:19;99551.16;;;19.35;48.77
54329;BME280;40710;51.120;13.136;2023-05-14T06:53:44;99555.41;;;19.47;49.65
54329;BME280;40710;51.120;13.136;2023-05-14T06:56:08;99551.84;;;18.85;49.78
54329;BME280;40710;51.120;13.136;2023-05-14T06:58:33;99553.81;;;19.35;49.21
54329;BME280;40710;51.120;13.136;2023-05-14T07:00:58;99553.16;;;19.42;48.80
54329;BME280;40710;51.120;13.136;2023-05-14T07:03:23;99549.06;;;19.38;48.61
54329;BME280;40710;51.120;13.136;2023-05-14T07:05:47;99544.44;;;19.40;47.85
54329;BME280;40710;51.120;13.136;2023-05-14T07:08:12;99539.09;;;19.71;47.77
54329;BME280;40710;51.120;13.136;2023-05-14T07:10:37;99538.09;;;20.23;47.99
54329;BME280;40710;51.120;13.136;2023-05-14T07:13:02;99530.47;;;19.98;47.68
54329;BME280;40710;51.120;13.136;2023-05-14T07:15:26;99530.38;;;20.29;47.42
54329;BME280;40710;51.120;13.136;2023-05-14T07:17:51;99518.28;;;20.35;46.59
54329;BME280;40710;51.120;13.136;2023-05-14T07:20:15;99516.88;;;20.40;46.57
54329;BME280;40710;51.120;13.136;2023-05-14T07:22:40;99518.72;;;20.69;46.58
54329;BME280;40710;51.120;13.136;2023-05-14T07:25:05;99509.47;;;20.44;45.97
54329;BME280;40710;51.120;13.136;2023-05-14T07:27:29;99515.22;;;20.69;45.70
54329;BME280;40710;51.120;13.136;2023-05-14T07:29:54;99511.69;;;20.29;45.70
54329;BME280;40710;51.120;13.136;2023-05-14T07:32:18;99504.38;;;20.80;44.98
54329;BME280;40710;51.120;13.136;2023-05-14T07:34:43;99504.22;;;20.72;45.68
54329;BME280;40710;51.120;13.136;2023-05-14T07:37:07;99504.66;;;20.57;45.84
54329;BME280;40710;51.120;13.136;2023-05-14T07:39:32;99506.22;;;21.17;44.53
54329;BME280;40710;51.120;13.136;2023-05-14T07:41:57;99500.34;;;21.51;44.25
54329;BME280;40710;51.120;13.136;2023-05-14T07:44:21;99499.16;;;21.26;44.42
54329;BME280;40710;51.120;13.136;2023-05-14T07:46:46;99503.53;;;20.70;44.18
54329;BME280;40710;51.120;13.136;2023-05-14T07:49:11;99493.94;;;21.34;42.40
54329;BME280;40710;51.120;13.136;2023-05-14T07:51:35;99487.22;;;21.58;43.22
54329;BME280;40710;51.120;13.136;2023-05-14T07:54:00;99486.75;;;21.34;42.99
54329;BME280;40710;51.120;13.136;2023-05-14T07:56:24;99497.75;;;21.87;43.32
54329;BME280;40710;51.120;13.136;2023-05-14T07:58:49;99483.03;;;22.37;42.65
54329;BME280;40710;51.120;13.136;2023-05-14T08:01:14;99484.69;;;22.56;42.36
54329;BME280;40710;51.120;13.136;2023-05-14T08:03:39;99470.78;;;22.78;40.95
54329;BME280;40710;51.120;13.136;2023-05-14T08:06:03;99481.50;;;23.04;40.94
54329;BME280;40710;51.120;13.136;2023-05-14T08:08:28;99479.09;;;22.67;41.81
54329;BME280;40710;51.120;13.136;2023-05-14T08:10:53;99485.22;;;22.59;41.29
54329;BME280;40710;51.120;13.136;2023-05-14T08:13:17;99478.75;;;22.70;40.46
54329;BME280;40710;51.120;13.136;2023-05-14T08:15:42;99487.50;;;22.72;41.85
54329;BME280;40710;51.120;13.136;2023-05-14T08:18:06;99473.97;;;22.82;40.85
54329;BME280;40710;51.120;13.136;2023-05-14T08:20:31;99469.88;;;22.96;40.33
54329;BME280;40710;51.120;13.136;2023-05-14T08:22:56;99473.38;;;23.14;41.18
54329;BME280;40710;51.120;13.136;2023-05-14T08:25:23;99464.69;;;23.20;39.64
54329;BME280;40710;51.120;13.136;2023-05-14T08:27:48;99461.84;;;22.96;40.50
54329;BME280;40710;51.120;13.136;2023-05-14T08:30:13;99453.56;;;24.09;39.28
54329;BME280;40710;51.120;13.136;2023-05-14T08:32:37;99460.28;;;24.29;38.70
54329;BME280;40710;51.120;13.136;2023-05-14T08:35:02;99451.19;;;23.97;38.37
54329;BME280;40710;51.120;13.136;2023-05-14T08:37:27;99444.66;;;24.74;37.58
54329;BME280;40710;51.120;13.136;2023-05-14T08:39:52;99433.81;;;25.55;36.67
54329;BME280;40710;51.120;13.136;2023-05-14T08:42:19;99449.00;;;24.50;37.91
54329;BME280;40710;51.120;13.136;2023-05-14T08:44:47;99457.91;;;24.02;39.30
54329;BME280;40710;51.120;13.136;2023-05-14T08:47:17;99439.28;;;24.74;36.41
54329;BME280;40710;51.120;13.136;2023-05-14T08:49:52;99421.09;;;25.40;35.44
54329;BME280;40710;51.120;13.136;2023-05-14T08:52:19;99428.78;;;25.43;36.30
54329;BME280;40710;51.120;13.136;2023-05-14T08:54:47;99432.78;;;25.79;36.10
54329;BME280;40710;51.120;13.136;2023-05-14T08:57:13;99432.59;;;25.18;36.05
54329;BME280;40710;51.120;13.136;2023-05-14T08:59:38;99427.22;;;25.57;34.75
54329;BME280;40710;51.120;13.136;2023-05-14T09:02:04;99438.16;;;25.16;37.14
54329;BME280;40710;51.120;13.136;2023-05-14T09:04:29;99430.91;;;24.61;36.22
54329;BME280;40710;51.120;13.136;2023-05-14T09:06:54;99445.88;;;23.55;37.66
54329;BME280;40710;51.120;13.136;2023-05-14T09:09:19;99440.44;;;23.81;38.97
54329;BME280;40710;51.120;13.136;2023-05-14T09:11:50;99444.38;;;23.60;38.78
54329;BME280;40710;51.120;13.136;2023-05-14T09:14:15;99442.00;;;23.07;38.35
54329;BME280;40710;51.120;13.136;2023-05-14T09:16:40;99442.94;;;22.71;39.01
54329;BME280;40710;51.120;13.136;2023-05-14T09:19:06;99439.06;;;22.92;39.91
54329;BME280;40710;51.120;13.136;2023-05-14T09:21:32;99449.75;;;22.21;40.91
54329;BME280;40710;51.120;13.136;2023-05-14T09:23:57;99434.31;;;22.59;40.20
54329;BME280;40710;51.120;13.136;2023-05-14T09:26:26;99435.53;;;22.39;40.68
54329;BME280;40710;51.120;13.136;2023-05-14T09:28:55;99439.66;;;21.97;41.07
54329;BME280;40710;51.120;13.136;2023-05-14T09:31:21;99446.03;;;21.68;41.51
54329;BME280;40710;51.120;13.136;2023-05-14T09:33:51;99449.44;;;21.43;41.77
54329;BME280;40710;51.120;13.136;2023-05-14T09:36:17;99448.94;;;21.57;42.21
54329;BME280;40710;51.120;13.136;2023-05-14T09:38:41;99450.66;;;21.58;42.01
54329;BME280;40710;51.120;13.136;2023-05-14T09:41:06;99458.13;;;21.17;42.50
54329;BME280;40710;51.120;13.136;2023-05-14T09:43:30;99456.72;;;20.75;43.96
54329;BME280;40710;51.120;13.136;2023-05-14T09:45:55;99454.22;;;20.74;43.68
54329;BME280;40710;51.120;13.136;2023-05-14T09:48:19;99451.41;;;20.46;43.39
54329;BME280;40710;51.120;13.136;2023-05-14T09:50:45;99449.38;;;20.87;43.10
54329;BME280;40710;51.120;13.136;2023-05-14T09:53:11;99464.22;;;20.43;45.28
54329;BME280;40710;51.120;13.136;2023-05-14T09:55:37;99459.56;;;20.35;45.61
54329;BME280;40710;51.120;13.136;2023-05-14T09:58:03;99456.91;;;20.25;45.36
54329;BME280;40710;51.120;13.136;2023-05-14T10:00:29;99446.25;;;20.15;44.94
54329;BME280;40710;51.120;13.136;2023-05-14T10:02:57;99464.03;;;19.35;46.80
54329;BME280;40710;51.120;13.136;2023-05-14T10:05:22;99473.94;;;19.14;47.92
54329;BME280;40710;51.120;13.136;2023-05-14T10:07:48;99473.53;;;19.18;48.24
54329;BME280;40710;51.120;13.136;2023-05-14T10:10:18;99471.31;;;19.23;47.80
54329;BME280;40710;51.120;13.136;2023-05-14T10:12:50;99460.94;;;19.71;46.96
54329;BME280;40710;51.120;13.136;2023-05-14T10:15:19;99447.19;;;20.53;46.41
54329;BME280;40710;51.120;13.136;2023-05-14T10:17:55;99428.56;;;22.46;44.52
54329;BME280;40710;51.120;13.136;2023-05-14T10:20:23;99415.59;;;22.94;41.05
54329;BME280;40710;51.120;13.136;2023-05-14T10:22:48;99434.75;;;21.19;44.73
54329;BME280;40710;51.120;13.136;2023-05-14T10:25:13;99435.31;;;20.95;45.57
54329;BME280;40710;51.120;13.136;2023-05-14T10:27:39;99418.31;;;21.51;43.89
54329;BME280;40710;51.120;13.136;2023-05-14T10:30:10;99415.50;;;21.89;43.45
54329;BME280;40710;51.120;13.136;2023-05-14T10:32:36;99401.91;;;22.00;42.38
54329;BME280;40710;51.120;13.136;2023-05-14T10:35:01;99409.47;;;21.87;43.15
54329;BME280;40710;51.120;13.136;2023-05-14T10:37:26;99399.34;;;21.63;41.46
54329;BME280;40710;51.120;13.136;2023-05-14T10:39:57;99396.88;;;21.79;41.48
54329;BME280;40710;51.120;13.136;2023-05-14T10:42:25;99388.63;;;22.17;40.61
54329;BME280;40710;51.120;13.136;2023-05-14T10:45:01;99382.78;;;22.92;40.45
54329;BME280;40710;51.120;13.136;2023-05-14T10:47:30;99370.78;;;22.43;37.92
54329;BME280;40710;51.120;13.136;2023-05-14T10:49:57;99376.13;;;23.04;37.53
54329;BME280;40710;51.120;13.136;2023-05-14T10:52:23;99373.25;;;23.32;38.41
54329;BME280;40710;51.120;13.136;2023-05-14T10:55:02;99367.66;;;23.17;38.78
54329;BME280;40710;51.120;13.136;2023-05-14T10:57:30;99375.00;;;22.46;37.62
54329;BME280;40710;51.120;13.136;2023-05-14T10:59:56;99372.00;;;22.83;37.16
54329;BME280;40710;51.120;13.136;2023-05-14T11:05:00;99370.63;;;22.45;37.56
54329;BME280;40710;51.120;13.136;2023-05-14T11:07:29;99364.25;;;22.72;37.25
54329;BME280;40710;51.120;13.136;2023-05-14T11:10:02;99353.66;;;22.97;36.79
54329;BME280;40710;51.120;13.136;2023-05-14T11:12:27;99358.84;;;23.57;36.28
54329;BME280;40710;51.120;13.136;2023-05-14T11:14:53;99359.59;;;23.17;37.21
54329;BME280;40710;51.120;13.136;2023-05-14T11:17:18;99358.00;;;23.40;37.45
54329;BME280;40710;51.120;13.136;2023-05-14T11:19:43;99345.63;;;23.72;36.10
54329;BME280;40710;51.120;13.136;2023-05-14T11:22:09;99359.13;;;23.21;37.48
54329;BME280;40710;51.120;13.136;2023-05-14T11:24:36;99361.25;;;23.10;38.25
54329;BME280;40710;51.120;13.136;2023-05-14T11:27:01;99349.50;;;23.62;36.34
54329;BME280;40710;51.120;13.136;2023-05-14T11:29:25;99351.97;;;23.47;36.09
54329;BME280;40710;51.120;13.136;2023-05-14T11:31:50;99356.44;;;23.21;37.25
54329;BME280;40710;51.120;13.136;2023-05-14T11:34:15;99348.13;;;23.49;36.26
54329;BME280;40710;51.120;13.136;2023-05-14T11:36:40;99344.78;;;23.55;36.21
54329;BME280;40710;51.120;13.136;2023-05-14T11:39:05;99339.75;;;23.44;37.28
54329;BME280;40710;51.120;13.136;2023-05-14T11:41:31;99341.75;;;23.50;37.46
54329;BME280;40710;51.120;13.136;2023-05-14T11:43:57;99344.72;;;23.31;38.22
54329;BME280;40710;51.120;13.136;2023-05-14T11:46:21;99339.47;;;23.88;37.25
54329;BME280;40710;51.120;13.136;2023-05-14T11:48:47;99337.44;;;24.15;36.79
54329;BME280;40710;51.120;13.136;2023-05-14T11:51:11;99329.66;;;24.45;35.48
54329;BME280;40710;51.120;13.136;2023-05-14T11:53:36;99299.03;;;28.50;30.70
54329;BME280;40710;51.120;13.136;2023-05-14T11:56:01;99338.50;;;25.09;35.01
54329;BME280;40710;51.120;13.136;2023-05-14T11:58:26;99325.31;;;24.91;36.18
54329;BME280;40710;51.120;13.136;2023-05-14T12:00:52;99330.75;;;24.75;35.57
54329;BME280;40710;51.120;13.136;2023-05-14T12:03:20;99320.19;;;25.05;34.38
54329;BME280;40710;51.120;13.136;2023-05-14T12:05:56;99292.03;;;28.27;30.87
54329;BME280;40710;51.120;13.136;2023-05-14T12:08:26;99318.78;;;24.86;35.65
54329;BME280;40710;51.120;13.136;2023-05-14T12:10:52;99304.25;;;25.03;34.94
54329;BME280;40710;51.120;13.136;2023-05-14T12:13:16;99286.50;;;25.95;32.76
54329;BME280;40710;51.120;13.136;2023-05-14T12:15:44;99289.28;;;26.91;33.21
54329;BME280;40710;51.120;13.136;2023-05-14T12:18:10;99282.53;;;27.16;32.19
54329;BME280;40710;51.120;13.136;2023-05-14T12:20:34;99271.63;;;28.18;31.84
54329;BME280;40710;51.120;13.136;2023-05-14T12:22:59;99269.69;;;28.81;31.11
54329;BME280;40710;51.120;13.136;2023-05-14T12:25:24;99261.97;;;28.37;31.25
54329;BME280;40710;51.120;13.136;2023-05-14T12:27:48;99278.78;;;25.45;33.22
54329;BME280;40710;51.120;13.136;2023-05-14T12:30:13;99274.53;;;26.27;31.97
54329;BME280;40710;51.120;13.136;2023-05-14T12:32:38;99275.97;;;25.62;33.34
54329;BME280;40710;51.120;13.136;2023-05-14T12:35:04;99272.16;;;25.56;33.26
54329;BME280;40710;51.120;13.136;2023-05-14T12:37:29;99275.03;;;25.93;33.64
54329;BME280;40710;51.120;13.136;2023-05-14T12:39:53;99273.66;;;25.59;33.81
54329;BME280;40710;51.120;13.136;2023-05-14T12:42:18;99280.09;;;24.56;34.41
54329;BME280;40710;51.120;13.136;2023-05-14T12:44:42;99281.03;;;24.15;35.73
54329;BME280;40710;51.120;13.136;2023-05-14T12:47:07;99282.41;;;23.94;36.90
54329;BME280;40710;51.120;13.136;2023-05-14T12:49:32;99290.41;;;23.20;37.52